sensor_id;sensor_type;location;lat;lon;timestamp;P1;durP1;ratioP1;P2;durP2;ratioP2
59830;SDS011;45711;50.108;13.712;2023-07-24T00:01:24;5.03;;;3.40;;
59830;SDS011;45711;50.108;13.712;2023-07-24T00:03:49;4.95;;;3.20;;
59830;SDS011;45711;50.108;13.712;2023-07-24T00:06:15;13.23;;;7.70;;
59830;SDS011;45711;50.108;13.712;2023-07-24T00:08:41;9.38;;;5.35;;
59830;SDS011;45711;50.108;13.712;2023-07-24T00:11:06;6.15;;;4.20;;
59830;SDS011;45711;50.108;13.712;2023-07-24T00:13:36;7.22;;;3.80;;
59830;SDS011;45711;50.108;13.712;2023-07-24T00:16:05;8.23;;;4.20;;
59830;SDS011;45711;50.108;13.712;2023-07-24T00:18:31;5.32;;;3.55;;
59830;SDS011;45711;50.108;13.712;2023-07-24T00:20:57;5.10;;;3.42;;
59830;SDS011;45711;50.108;13.712;2023-07-24T00:23:22;5.57;;;3.55;;
59830;SDS011;45711;50.108;13.712;2023-07-24T00:25:48;5.90;;;3.80;;
59830;SDS011;45711;50.108;13.712;2023-07-24T00:28:13;8.27;;;3.78;;
59830;SDS011;45711;50.108;13.712;2023-07-24T00:30:40;6.75;;;3.75;;
59830;SDS011;45711;50.108;13.712;2023-07-24T00:33:07;6.68;;;3.90;;
59830;SDS011;45711;50.108;13.712;2023-07-24T00:35:32;6.15;;;3.90;;
59830;SDS011;45711;50.108;13.712;2023-07-24T00:37:58;5.82;;;3.72;;
59830;SDS011;45711;50.108;13.712;2023-07-24T00:40:23;7.55;;;3.70;;
59830;SDS011;45711;50.108;13.712;2023-07-24T00:42:49;7.45;;;3.65;;
59830;SDS011;45711;50.108;13.712;2023-07-24T00:45:15;5.18;;;3.35;;
59830;SDS011;45711;50.108;13.712;2023-07-24T00:47:42;7.53;;;3.53;;
59830;SDS011;45711;50.108;13.712;2023-07-24T00:50:09;5.68;;;3.38;;
59830;SDS011;45711;50.108;13.712;2023-07-24T00:52:36;6.57;;;4.07;;
59830;SDS011;45711;50.108;13.712;2023-07-24T00:55:02;7.10;;;4.03;;
59830;SDS011;45711;50.108;13.712;2023-07-24T00:57:28;8.27;;;3.78;;
59830;SDS011;45711;50.108;13.712;2023-07-24T00:59:54;7.68;;;3.88;;
59830;SDS011;45711;50.108;13.712;2023-07-24T01:02:20;7.28;;;4.10;;
59830;SDS011;45711;50.108;13.712;2023-07-24T01:04:47;5.43;;;3.67;;
59830;SDS011;45711;50.108;13.712;2023-07-24T01:07:13;8.95;;;4.25;;
59830;SDS011;45711;50.108;13.712;2023-07-24T01:09:41;6.63;;;3.65;;
59830;SDS011;45711;50.108;13.712;2023-07-24T01:12:07;5.72;;;3.72;;
59830;SDS011;45711;50.108;13.712;2023-07-24T01:14:41;5.68;;;3.70;;
59830;SDS011;45711;50.108;13.712;2023-07-24T01:17:11;11.77;;;3.88;;
59830;SDS011;45711;50.108;13.712;2023-07-24T01:19:40;9.25;;;3.88;;
59830;SDS011;45711;50.108;13.712;2023-07-24T01:22:12;8.25;;;4.18;;
59830;SDS011;45711;50.108;13.712;2023-07-24T01:24:48;7.10;;;4.50;;
59830;SDS011;45711;50.108;13.712;2023-07-24T01:27:24;7.35;;;4.10;;
59830;SDS011;45711;50.108;13.712;2023-07-24T01:29:50;7.38;;;4.30;;
59830;SDS011;45711;50.108;13.712;2023-07-24T01:32:18;6.93;;;3.88;;
59830;SDS011;45711;50.108;13.712;2023-07-24T01:34:44;7.45;;;3.75;;
59830;SDS011;45711;50.108;13.712;2023-07-24T01:37:10;13.55;;;4.10;;
59830;SDS011;45711;50.108;13.712;2023-07-24T01:39:37;6.95;;;3.67;;
59830;SDS011;45711;50.108;13.712;2023-07-24T01:42:04;6.68;;;3.40;;
59830;SDS011;45711;50.108;13.712;2023-07-24T01:44:32;6.95;;;3.78;;
59830;SDS011;45711;50.108;13.712;2023-07-24T01:46:57;4.78;;;3.50;;
59830;SDS011;45711;50.108;13.712;2023-07-24T01:49:23;6.45;;;3.80;;
59830;SDS011;45711;50.108;13.712;2023-07-24T01:51:48;4.72;;;3.67;;
59830;SDS011;45711;50.108;13.712;2023-07-24T01:54:14;9.13;;;3.80;;
59830;SDS011;45711;50.108;13.712;2023-07-24T01:56:39;7.15;;;3.85;;
59830;SDS011;45711;50.108;13.712;2023-07-24T01:59:05;5.70;;;3.50;;
59830;SDS011;45711;50.108;13.712;2023-07-24T02:01:32;8.07;;;3.63;;
59830;SDS011;45711;50.108;13.712;2023-07-24T02:04:01;6.53;;;3.67;;
59830;SDS011;45711;50.108;13.712;2023-07-24T02:06:26;5.57;;;3.60;;
59830;SDS011;45711;50.108;13.712;2023-07-24T02:08:52;5.68;;;3.78;;
59830;SDS011;45711;50.108;13.712;2023-07-24T02:11:17;6.53;;;4.03;;
59830;SDS011;45711;50.108;13.712;2023-07-24T02:13:43;14.52;;;4.18;;
59830;SDS011;45711;50.108;13.712;2023-07-24T02:16:10;6.35;;;3.72;;
59830;SDS011;45711;50.108;13.712;2023-07-24T02:18:36;5.22;;;3.47;;
59830;SDS011;45711;50.108;13.712;2023-07-24T02:21:03;6.07;;;3.75;;
59830;SDS011;45711;50.108;13.712;2023-07-24T02:23:28;10.30;;;4.53;;
59830;SDS011;45711;50.108;13.712;2023-07-24T02:25:54;5.70;;;4.28;;
59830;SDS011;45711;50.108;13.712;2023-07-24T02:28:19;5.03;;;3.45;;
59830;SDS011;45711;50.108;13.712;2023-07-24T02:30:46;8.05;;;4.43;;
59830;SDS011;45711;50.108;13.712;2023-07-24T02:33:12;6.88;;;4.10;;
59830;SDS011;45711;50.108;13.712;2023-07-24T02:35:39;10.07;;;4.30;;
59830;SDS011;45711;50.108;13.712;2023-07-24T02:38:05;9.07;;;4.53;;
59830;SDS011;45711;50.108;13.712;2023-07-24T02:40:31;8.27;;;3.95;;
59830;SDS011;45711;50.108;13.712;2023-07-24T02:42:56;7.15;;;4.70;;
59830;SDS011;45711;50.108;13.712;2023-07-24T02:45:22;6.60;;;3.80;;
59830;SDS011;45711;50.108;13.712;2023-07-24T02:47:50;8.00;;;4.20;;
59830;SDS011;45711;50.108;13.712;2023-07-24T02:50:16;7.28;;;4.05;;
59830;SDS011;45711;50.108;13.712;2023-07-24T02:52:43;7.47;;;4.10;;
59830;SDS011;45711;50.108;13.712;2023-07-24T02:55:08;7.72;;;4.35;;
59830;SDS011;45711;50.108;13.712;2023-07-24T02:57:34;7.93;;;4.05;;
59830;SDS011;45711;50.108;13.712;2023-07-24T03:00:00;5.82;;;3.95;;
59830;SDS011;45711;50.108;13.712;2023-07-24T03:02:25;7.32;;;3.72;;
59830;SDS011;45711;50.108;13.712;2023-07-24T03:04:51;11.63;;;3.90;;
59830;SDS011;45711;50.108;13.712;2023-07-24T03:07:16;4.85;;;3.63;;
59830;SDS011;45711;50.108;13.712;2023-07-24T03:09:43;10.43;;;4.50;;
59830;SDS011;45711;50.108;13.712;2023-07-24T03:12:09;10.50;;;4.63;;
59830;SDS011;45711;50.108;13.712;2023-07-24T03:14:36;16.83;;;5.20;;
59830;SDS011;45711;50.108;13.712;2023-07-24T03:17:01;10.55;;;4.45;;
59830;SDS011;45711;50.108;13.712;2023-07-24T03:19:27;10.50;;;4.60;;
59830;SDS011;45711;50.108;13.712;2023-07-24T03:21:53;8.32;;;4.75;;
59830;SDS011;45711;50.108;13.712;2023-07-24T03:24:18;6.88;;;4.38;;
59830;SDS011;45711;50.108;13.712;2023-07-24T03:26:45;11.38;;;6.07;;
59830;SDS011;45711;50.108;13.712;2023-07-24T03:29:11;8.40;;;4.05;;
59830;SDS011;45711;50.108;13.712;2023-07-24T03:31:36;9.63;;;4.72;;
59830;SDS011;45711;50.108;13.712;2023-07-24T03:34:02;10.20;;;5.05;;
59830;SDS011;45711;50.108;13.712;2023-07-24T03:36:27;10.63;;;5.25;;
59830;SDS011;45711;50.108;13.712;2023-07-24T03:38:53;10.10;;;5.10;;
59830;SDS011;45711;50.108;13.712;2023-07-24T03:41:18;9.10;;;4.68;;
59830;SDS011;45711;50.108;13.712;2023-07-24T03:43:45;8.35;;;4.82;;
59830;SDS011;45711;50.108;13.712;2023-07-24T03:46:11;13.25;;;4.38;;
59830;SDS011;45711;50.108;13.712;2023-07-24T03:48:36;8.38;;;4.88;;
59830;SDS011;45711;50.108;13.712;2023-07-24T03:51:02;10.95;;;5.00;;
59830;SDS011;45711;50.108;13.712;2023-07-24T03:53:28;6.07;;;4.10;;
59830;SDS011;45711;50.108;13.712;2023-07-24T03:55:54;6.97;;;4.93;;
59830;SDS011;45711;50.108;13.712;2023-07-24T03:58:19;8.68;;;5.20;;
59830;SDS011;45711;50.108;13.712;2023-07-24T04:00:46;9.18;;;5.20;;
59830;SDS011;45711;50.108;13.712;2023-07-24T04:03:12;7.20;;;5.00;;
59830;SDS011;45711;50.108;13.712;2023-07-24T04:05:39;9.15;;;5.10;;
59830;SDS011;45711;50.108;13.712;2023-07-24T04:08:05;9.05;;;4.25;;
59830;SDS011;45711;50.108;13.712;2023-07-24T04:10:30;8.77;;;5.35;;
59830;SDS011;45711;50.108;13.712;2023-07-24T04:12:56;8.80;;;5.05;;
59830;SDS011;45711;50.108;13.712;2023-07-24T04:15:22;8.10;;;4.70;;
59830;SDS011;45711;50.108;13.712;2023-07-24T04:17:49;10.70;;;4.85;;
59830;SDS011;45711;50.108;13.712;2023-07-24T04:20:14;9.20;;;4.53;;
59830;SDS011;45711;50.108;13.712;2023-07-24T04:22:40;7.75;;;4.50;;
59830;SDS011;45711;50.108;13.712;2023-07-24T04:25:06;11.23;;;4.68;;
59830;SDS011;45711;50.108;13.712;2023-07-24T04:27:32;10.70;;;5.15;;
59830;SDS011;45711;50.108;13.712;2023-07-24T04:29:58;11.10;;;4.97;;
59830;SDS011;45711;50.108;13.712;2023-07-24T04:32:25;8.15;;;4.82;;
59830;SDS011;45711;50.108;13.712;2023-07-24T04:34:52;7.72;;;4.22;;
59830;SDS011;45711;50.108;13.712;2023-07-24T04:37:20;12.52;;;4.57;;
59830;SDS011;45711;50.108;13.712;2023-07-24T04:39:45;27.13;;;5.75;;
59830;SDS011;45711;50.108;13.712;2023-07-24T04:42:11;11.85;;;4.60;;
59830;SDS011;45711;50.108;13.712;2023-07-24T04:44:36;12.75;;;4.78;;
59830;SDS011;45711;50.108;13.712;2023-07-24T04:47:02;14.23;;;5.10;;
59830;SDS011;45711;50.108;13.712;2023-07-24T04:49:28;26.08;;;5.18;;
59830;SDS011;45711;50.108;13.712;2023-07-24T04:51:55;10.13;;;5.25;;
59830;SDS011;45711;50.108;13.712;2023-07-24T04:54:21;7.75;;;4.55;;
59830;SDS011;45711;50.108;13.712;2023-07-24T04:56:46;9.80;;;4.85;;
59830;SDS011;45711;50.108;13.712;2023-07-24T04:59:12;8.95;;;4.80;;
59830;SDS011;45711;50.108;13.712;2023-07-24T05:01:37;8.38;;;3.90;;
59830;SDS011;45711;50.108;13.712;2023-07-24T05:04:03;12.60;;;4.82;;
59830;SDS011;45711;50.108;13.712;2023-07-24T05:06:29;12.30;;;5.25;;
59830;SDS011;45711;50.108;13.712;2023-07-24T05:08:55;10.18;;;4.68;;
59830;SDS011;45711;50.108;13.712;2023-07-24T05:11:21;8.75;;;4.93;;
59830;SDS011;45711;50.108;13.712;2023-07-24T05:13:47;8.25;;;4.28;;
59830;SDS011;45711;50.108;13.712;2023-07-24T05:16:12;8.93;;;5.25;;
59830;SDS011;45711;50.108;13.712;2023-07-24T05:18:38;7.85;;;4.85;;
59830;SDS011;45711;50.108;13.712;2023-07-24T05:21:03;9.35;;;5.22;;
59830;SDS011;45711;50.108;13.712;2023-07-24T05:23:29;8.07;;;4.57;;
59830;SDS011;45711;50.108;13.712;2023-07-24T05:26:00;11.82;;;4.97;;
59830;SDS011;45711;50.108;13.712;2023-07-24T05:28:26;8.25;;;4.88;;
59830;SDS011;45711;50.108;13.712;2023-07-24T05:30:53;11.30;;;5.32;;
59830;SDS011;45711;50.108;13.712;2023-07-24T05:33:18;9.07;;;4.90;;
59830;SDS011;45711;50.108;13.712;2023-07-24T05:35:44;8.48;;;4.47;;
59830;SDS011;45711;50.108;13.712;2023-07-24T05:38:09;7.93;;;4.78;;
59830;SDS011;45711;50.108;13.712;2023-07-24T05:40:35;9.30;;;5.38;;
59830;SDS011;45711;50.108;13.712;2023-07-24T05:43:02;9.55;;;4.93;;
59830;SDS011;45711;50.108;13.712;2023-07-24T05:45:29;7.88;;;5.15;;
59830;SDS011;45711;50.108;13.712;2023-07-24T05:47:54;8.50;;;5.15;;
59830;SDS011;45711;50.108;13.712;2023-07-24T05:50:20;8.50;;;5.60;;
59830;SDS011;45711;50.108;13.712;2023-07-24T05:52:48;8.43;;;4.90;;
59830;SDS011;45711;50.108;13.712;2023-07-24T05:55:14;8.15;;;4.55;;
59830;SDS011;45711;50.108;13.712;2023-07-24T05:57:39;31.83;;;6.35;;
59830;SDS011;45711;50.108;13.712;2023-07-24T06:00:10;8.43;;;4.80;;
59830;SDS011;45711;50.108;13.712;2023-07-24T06:02:36;11.63;;;4.90;;
59830;SDS011;45711;50.108;13.712;2023-07-24T06:05:01;13.88;;;5.05;;
59830;SDS011;45711;50.108;13.712;2023-07-24T06:07:27;7.32;;;4.82;;
59830;SDS011;45711;50.108;13.712;2023-07-24T06:09:53;7.70;;;4.63;;
59830;SDS011;45711;50.108;13.712;2023-07-24T06:12:18;10.55;;;5.03;;
59830;SDS011;45711;50.108;13.712;2023-07-24T06:14:47;10.15;;;5.85;;
59830;SDS011;45711;50.108;13.712;2023-07-24T06:17:14;7.85;;;5.00;;
59830;SDS011;45711;50.108;13.712;2023-07-24T06:19:41;10.85;;;5.50;;
59830;SDS011;45711;50.108;13.712;2023-07-24T06:22:10;8.75;;;5.32;;
59830;SDS011;45711;50.108;13.712;2023-07-24T06:24:35;11.68;;;5.10;;
59830;SDS011;45711;50.108;13.712;2023-07-24T06:27:01;12.45;;;6.30;;
59830;SDS011;45711;50.108;13.712;2023-07-24T06:29:27;14.07;;;5.47;;
59830;SDS011;45711;50.108;13.712;2023-07-24T06:31:53;19.98;;;6.10;;
59830;SDS011;45711;50.108;13.712;2023-07-24T06:34:20;13.75;;;5.78;;
59830;SDS011;45711;50.108;13.712;2023-07-24T06:36:50;18.83;;;5.90;;
59830;SDS011;45711;50.108;13.712;2023-07-24T06:39:21;10.82;;;5.97;;
59830;SDS011;45711;50.108;13.712;2023-07-24T06:41:47;7.70;;;5.00;;
59830;SDS011;45711;50.108;13.712;2023-07-24T06:44:12;15.00;;;5.82;;
59830;SDS011;45711;50.108;13.712;2023-07-24T06:46:38;14.02;;;5.97;;
59830;SDS011;45711;50.108;13.712;2023-07-24T06:49:04;11.30;;;5.65;;
59830;SDS011;45711;50.108;13.712;2023-07-24T06:51:31;9.57;;;6.05;;
59830;SDS011;45711;50.108;13.712;2023-07-24T06:53:56;13.35;;;6.53;;
59830;SDS011;45711;50.108;13.712;2023-07-24T06:56:22;16.15;;;6.80;;
59830;SDS011;45711;50.108;13.712;2023-07-24T06:58:48;14.88;;;7.55;;
59830;SDS011;45711;50.108;13.712;2023-07-24T07:01:13;11.45;;;6.47;;
59830;SDS011;45711;50.108;13.712;2023-07-24T07:03:39;10.50;;;5.22;;
59830;SDS011;45711;50.108;13.712;2023-07-24T07:06:05;10.00;;;6.03;;
59830;SDS011;45711;50.108;13.712;2023-07-24T07:08:33;12.15;;;6.10;;
59830;SDS011;45711;50.108;13.712;2023-07-24T07:10:59;8.48;;;5.43;;
59830;SDS011;45711;50.108;13.712;2023-07-24T07:13:25;10.20;;;5.75;;
59830;SDS011;45711;50.108;13.712;2023-07-24T07:15:51;6.95;;;4.93;;
59830;SDS011;45711;50.108;13.712;2023-07-24T07:18:16;8.68;;;5.13;;
59830;SDS011;45711;50.108;13.712;2023-07-24T07:20:44;8.40;;;5.50;;
59830;SDS011;45711;50.108;13.712;2023-07-24T07:23:10;10.48;;;6.10;;
59830;SDS011;45711;50.108;13.712;2023-07-24T07:25:37;8.25;;;5.65;;
59830;SDS011;45711;50.108;13.712;2023-07-24T07:28:03;9.48;;;5.25;;
59830;SDS011;45711;50.108;13.712;2023-07-24T07:30:28;10.07;;;5.45;;
59830;SDS011;45711;50.108;13.712;2023-07-24T07:32:54;9.98;;;5.80;;
59830;SDS011;45711;50.108;13.712;2023-07-24T07:35:20;10.10;;;4.88;;
59830;SDS011;45711;50.108;13.712;2023-07-24T07:37:45;9.02;;;5.28;;
59830;SDS011;45711;50.108;13.712;2023-07-24T07:40:11;12.77;;;5.53;;
59830;SDS011;45711;50.108;13.712;2023-07-24T07:42:39;13.57;;;5.53;;
59830;SDS011;45711;50.108;13.712;2023-07-24T07:45:05;10.35;;;5.70;;
59830;SDS011;45711;50.108;13.712;2023-07-24T07:47:31;10.93;;;5.63;;
59830;SDS011;45711;50.108;13.712;2023-07-24T07:49:56;12.82;;;5.90;;
59830;SDS011;45711;50.108;13.712;2023-07-24T07:52:22;12.73;;;6.82;;
59830;SDS011;45711;50.108;13.712;2023-07-24T07:54:48;12.27;;;6.70;;
59830;SDS011;45711;50.108;13.712;2023-07-24T07:57:14;12.95;;;6.00;;
59830;SDS011;45711;50.108;13.712;2023-07-24T07:59:41;14.18;;;5.90;;
59830;SDS011;45711;50.108;13.712;2023-07-24T08:02:07;12.02;;;6.07;;
59830;SDS011;45711;50.108;13.712;2023-07-24T08:04:33;11.82;;;5.95;;
59830;SDS011;45711;50.108;13.712;2023-07-24T08:06:59;13.75;;;6.68;;
59830;SDS011;45711;50.108;13.712;2023-07-24T08:09:24;10.02;;;6.60;;
59830;SDS011;45711;50.108;13.712;2023-07-24T08:11:50;11.68;;;6.28;;
59830;SDS011;45711;50.108;13.712;2023-07-24T08:14:21;10.82;;;6.00;;
59830;SDS011;45711;50.108;13.712;2023-07-24T08:16:51;11.68;;;6.45;;
59830;SDS011;45711;50.108;13.712;2023-07-24T08:19:18;8.32;;;5.50;;
59830;SDS011;45711;50.108;13.712;2023-07-24T08:21:43;8.57;;;5.85;;
59830;SDS011;45711;50.108;13.712;2023-07-24T08:24:09;9.82;;;6.05;;
59830;SDS011;45711;50.108;13.712;2023-07-24T08:26:35;14.63;;;6.05;;
59830;SDS011;45711;50.108;13.712;2023-07-24T08:29:00;10.45;;;6.43;;
59830;SDS011;45711;50.108;13.712;2023-07-24T08:31:26;11.25;;;6.53;;
59830;SDS011;45711;50.108;13.712;2023-07-24T08:33:53;9.20;;;6.25;;
59830;SDS011;45711;50.108;13.712;2023-07-24T08:36:19;10.25;;;6.20;;
59830;SDS011;45711;50.108;13.712;2023-07-24T08:38:45;10.32;;;6.43;;
59830;SDS011;45711;50.108;13.712;2023-07-24T08:41:13;20.05;;;8.05;;
59830;SDS011;45711;50.108;13.712;2023-07-24T08:43:40;12.95;;;6.43;;
59830;SDS011;45711;50.108;13.712;2023-07-24T08:46:08;9.35;;;6.55;;
59830;SDS011;45711;50.108;13.712;2023-07-24T08:48:35;14.90;;;6.53;;
59830;SDS011;45711;50.108;13.712;2023-07-24T08:51:03;10.05;;;6.57;;
59830;SDS011;45711;50.108;13.712;2023-07-24T08:53:30;10.27;;;6.38;;
59830;SDS011;45711;50.108;13.712;2023-07-24T08:55:57;11.63;;;6.45;;
59830;SDS011;45711;50.108;13.712;2023-07-24T08:58:24;10.00;;;6.43;;
59830;SDS011;45711;50.108;13.712;2023-07-24T09:00:50;14.98;;;6.40;;
59830;SDS011;45711;50.108;13.712;2023-07-24T09:03:16;9.55;;;5.15;;
59830;SDS011;45711;50.108;13.712;2023-07-24T09:05:42;7.53;;;5.43;;
59830;SDS011;45711;50.108;13.712;2023-07-24T09:08:09;11.85;;;6.20;;
59830;SDS011;45711;50.108;13.712;2023-07-24T09:10:35;9.30;;;6.15;;
59830;SDS011;45711;50.108;13.712;2023-07-24T09:13:01;10.88;;;6.15;;
59830;SDS011;45711;50.108;13.712;2023-07-24T09:15:29;12.15;;;6.38;;
59830;SDS011;45711;50.108;13.712;2023-07-24T09:17:54;10.65;;;5.75;;
59830;SDS011;45711;50.108;13.712;2023-07-24T09:20:20;6.75;;;5.03;;
59830;SDS011;45711;50.108;13.712;2023-07-24T09:22:49;7.60;;;5.20;;
59830;SDS011;45711;50.108;13.712;2023-07-24T09:25:16;11.10;;;5.95;;
59830;SDS011;45711;50.108;13.712;2023-07-24T09:27:41;11.73;;;5.88;;
59830;SDS011;45711;50.108;13.712;2023-07-24T09:30:11;6.90;;;4.55;;
59830;SDS011;45711;50.108;13.712;2023-07-24T09:32:38;8.38;;;5.55;;
59830;SDS011;45711;50.108;13.712;2023-07-24T09:35:04;10.13;;;5.80;;
59830;SDS011;45711;50.108;13.712;2023-07-24T09:37:41;8.55;;;6.30;;
59830;SDS011;45711;50.108;13.712;2023-07-24T09:40:06;8.95;;;6.20;;
59830;SDS011;45711;50.108;13.712;2023-07-24T09:42:35;7.72;;;5.47;;
59830;SDS011;45711;50.108;13.712;2023-07-24T09:45:02;9.93;;;5.55;;
59830;SDS011;45711;50.108;13.712;2023-07-24T09:47:28;11.20;;;6.32;;
59830;SDS011;45711;50.108;13.712;2023-07-24T09:49:54;10.88;;;5.75;;
59830;SDS011;45711;50.108;13.712;2023-07-24T09:52:20;16.48;;;6.20;;
59830;SDS011;45711;50.108;13.712;2023-07-24T09:54:49;17.95;;;6.43;;
59830;SDS011;45711;50.108;13.712;2023-07-24T09:57:22;9.98;;;5.28;;
59830;SDS011;45711;50.108;13.712;2023-07-24T09:59:50;11.05;;;5.60;;
59830;SDS011;45711;50.108;13.712;2023-07-24T10:02:17;11.02;;;5.57;;
59830;SDS011;45711;50.108;13.712;2023-07-24T10:04:44;9.85;;;6.10;;
59830;SDS011;45711;50.108;13.712;2023-07-24T10:07:10;12.38;;;6.45;;
59830;SDS011;45711;50.108;13.712;2023-07-24T10:09:36;10.80;;;5.93;;
59830;SDS011;45711;50.108;13.712;2023-07-24T10:12:02;8.45;;;5.55;;
59830;SDS011;45711;50.108;13.712;2023-07-24T10:14:29;8.77;;;5.88;;
59830;SDS011;45711;50.108;13.712;2023-07-24T10:16:57;9.90;;;5.28;;
59830;SDS011;45711;50.108;13.712;2023-07-24T10:19:22;8.68;;;5.70;;
59830;SDS011;45711;50.108;13.712;2023-07-24T10:21:48;10.77;;;5.80;;
59830;SDS011;45711;50.108;13.712;2023-07-24T10:24:15;13.55;;;6.38;;
59830;SDS011;45711;50.108;13.712;2023-07-24T10:26:42;9.60;;;6.18;;
59830;SDS011;45711;50.108;13.712;2023-07-24T10:29:11;13.52;;;5.97;;
59830;SDS011;45711;50.108;13.712;2023-07-24T10:31:38;11.10;;;6.20;;
59830;SDS011;45711;50.108;13.712;2023-07-24T10:34:05;15.25;;;5.57;;
59830;SDS011;45711;50.108;13.712;2023-07-24T10:36:33;9.10;;;5.40;;
59830;SDS011;45711;50.108;13.712;2023-07-24T10:38:59;13.35;;;6.38;;
59830;SDS011;45711;50.108;13.712;2023-07-24T10:41:34;10.15;;;6.38;;
59830;SDS011;45711;50.108;13.712;2023-07-24T10:44:01;17.48;;;6.25;;
59830;SDS011;45711;50.108;13.712;2023-07-24T10:46:34;9.60;;;5.63;;
59830;SDS011;45711;50.108;13.712;2023-07-24T10:49:01;11.20;;;6.70;;
59830;SDS011;45711;50.108;13.712;2023-07-24T10:51:28;12.27;;;5.65;;
59830;SDS011;45711;50.108;13.712;2023-07-24T10:53:54;11.00;;;5.88;;
59830;SDS011;45711;50.108;13.712;2023-07-24T10:56:20;10.38;;;5.60;;
59830;SDS011;45711;50.108;13.712;2023-07-24T10:58:46;15.35;;;6.38;;
59830;SDS011;45711;50.108;13.712;2023-07-24T11:01:11;13.70;;;6.82;;
59830;SDS011;45711;50.108;13.712;2023-07-24T11:03:37;10.60;;;5.60;;
59830;SDS011;45711;50.108;13.712;2023-07-24T11:06:04;11.32;;;6.00;;
59830;SDS011;45711;50.108;13.712;2023-07-24T11:08:31;16.13;;;6.72;;
59830;SDS011;45711;50.108;13.712;2023-07-24T11:10:59;13.75;;;6.50;;
59830;SDS011;45711;50.108;13.712;2023-07-24T11:13:26;15.30;;;6.60;;
59830;SDS011;45711;50.108;13.712;2023-07-24T11:15:53;11.82;;;6.50;;
59830;SDS011;45711;50.108;13.712;2023-07-24T11:18:20;15.73;;;6.60;;
59830;SDS011;45711;50.108;13.712;2023-07-24T11:20:47;12.50;;;7.15;;
59830;SDS011;45711;50.108;13.712;2023-07-24T11:23:14;13.65;;;6.50;;
59830;SDS011;45711;50.108;13.712;2023-07-24T11:25:41;23.42;;;7.43;;
59830;SDS011;45711;50.108;13.712;2023-07-24T11:28:07;13.70;;;6.90;;
59830;SDS011;45711;50.108;13.712;2023-07-24T11:30:35;13.13;;;6.53;;
59830;SDS011;45711;50.108;13.712;2023-07-24T11:33:02;15.98;;;7.00;;
59830;SDS011;45711;50.108;13.712;2023-07-24T11:35:29;11.40;;;5.70;;
59830;SDS011;45711;50.108;13.712;2023-07-24T11:37:55;18.20;;;6.55;;
59830;SDS011;45711;50.108;13.712;2023-07-24T11:40:21;15.13;;;6.53;;
59830;SDS011;45711;50.108;13.712;2023-07-24T11:42:57;11.45;;;6.43;;
59830;SDS011;45711;50.108;13.712;2023-07-24T11:45:23;10.75;;;6.20;;
59830;SDS011;45711;50.108;13.712;2023-07-24T11:47:49;13.00;;;6.47;;
59830;SDS011;45711;50.108;13.712;2023-07-24T11:50:15;14.35;;;6.53;;
59830;SDS011;45711;50.108;13.712;2023-07-24T11:52:43;17.70;;;6.35;;
59830;SDS011;45711;50.108;13.712;2023-07-24T11:55:10;23.33;;;6.40;;
59830;SDS011;45711;50.108;13.712;2023-07-24T11:57:36;19.58;;;7.10;;
59830;SDS011;45711;50.108;13.712;2023-07-24T12:00:05;14.93;;;7.20;;
59830;SDS011;45711;50.108;13.712;2023-07-24T12:02:42;15.73;;;7.00;;
59830;SDS011;45711;50.108;13.712;2023-07-24T12:05:09;19.27;;;6.22;;
59830;SDS011;45711;50.108;13.712;2023-07-24T12:07:35;12.93;;;6.13;;
59830;SDS011;45711;50.108;13.712;2023-07-24T12:10:01;14.55;;;6.47;;
59830;SDS011;45711;50.108;13.712;2023-07-24T12:12:38;10.93;;;6.63;;
59830;SDS011;45711;50.108;13.712;2023-07-24T12:15:06;14.70;;;6.30;;
59830;SDS011;45711;50.108;13.712;2023-07-24T12:17:33;12.57;;;6.97;;
59830;SDS011;45711;50.108;13.712;2023-07-24T12:19:58;11.18;;;6.57;;
59830;SDS011;45711;50.108;13.712;2023-07-24T12:22:24;11.35;;;6.22;;
59830;SDS011;45711;50.108;13.712;2023-07-24T12:24:50;13.52;;;7.35;;
59830;SDS011;45711;50.108;13.712;2023-07-24T12:27:15;14.93;;;6.53;;
59830;SDS011;45711;50.108;13.712;2023-07-24T12:29:41;10.25;;;6.55;;
59830;SDS011;45711;50.108;13.712;2023-07-24T12:32:08;13.18;;;7.00;;
59830;SDS011;45711;50.108;13.712;2023-07-24T12:34:33;17.27;;;6.72;;
59830;SDS011;45711;50.108;13.712;2023-07-24T12:36:59;8.63;;;6.13;;
59830;SDS011;45711;50.108;13.712;2023-07-24T12:39:24;16.58;;;6.43;;
59830;SDS011;45711;50.108;13.712;2023-07-24T12:41:50;16.17;;;7.47;;
59830;SDS011;45711;50.108;13.712;2023-07-24T12:44:15;16.23;;;7.15;;
59830;SDS011;45711;50.108;13.712;2023-07-24T12:46:41;12.02;;;6.40;;
59830;SDS011;45711;50.108;13.712;2023-07-24T12:49:08;11.90;;;6.70;;
59830;SDS011;45711;50.108;13.712;2023-07-24T12:51:34;13.00;;;6.93;;
59830;SDS011;45711;50.108;13.712;2023-07-24T12:53:59;10.98;;;6.55;;
59830;SDS011;45711;50.108;13.712;2023-07-24T12:56:25;13.98;;;6.63;;
59830;SDS011;45711;50.108;13.712;2023-07-24T12:58:50;10.80;;;6.38;;
59830;SDS011;45711;50.108;13.712;2023-07-24T13:01:16;13.30;;;6.90;;
59830;SDS011;45711;50.108;13.712;2023-07-24T13:03:41;10.00;;;6.22;;
59830;SDS011;45711;50.108;13.712;2023-07-24T13:06:08;10.60;;;6.18;;
59830;SDS011;45711;50.108;13.712;2023-07-24T13:08:34;12.10;;;6.47;;
59830;SDS011;45711;50.108;13.712;2023-07-24T13:10:59;14.10;;;6.80;;
59830;SDS011;45711;50.108;13.712;2023-07-24T13:13:25;10.32;;;6.30;;
59830;SDS011;45711;50.108;13.712;2023-07-24T13:15:53;10.93;;;6.50;;
59830;SDS011;45711;50.108;13.712;2023-07-24T13:18:19;13.15;;;6.78;;
59830;SDS011;45711;50.108;13.712;2023-07-24T13:20:45;12.07;;;6.32;;
59830;SDS011;45711;50.108;13.712;2023-07-24T13:23:12;10.57;;;5.90;;
59830;SDS011;45711;50.108;13.712;2023-07-24T13:25:37;11.80;;;6.63;;
59830;SDS011;45711;50.108;13.712;2023-07-24T13:28:03;9.20;;;6.60;;
59830;SDS011;45711;50.108;13.712;2023-07-24T13:30:29;15.13;;;6.82;;
59830;SDS011;45711;50.108;13.712;2023-07-24T13:32:54;12.15;;;6.47;;
59830;SDS011;45711;50.108;13.712;2023-07-24T13:35:20;11.85;;;6.88;;
59830;SDS011;45711;50.108;13.712;2023-07-24T13:37:46;10.30;;;6.63;;
59830;SDS011;45711;50.108;13.712;2023-07-24T13:40:13;9.38;;;5.95;;
59830;SDS011;45711;50.108;13.712;2023-07-24T13:42:40;12.02;;;6.70;;
59830;SDS011;45711;50.108;13.712;2023-07-24T13:45:16;12.00;;;6.30;;
59830;SDS011;45711;50.108;13.712;2023-07-24T13:47:42;19.45;;;6.72;;
59830;SDS011;45711;50.108;13.712;2023-07-24T13:50:07;10.85;;;6.22;;
59830;SDS011;45711;50.108;13.712;2023-07-24T13:52:34;9.55;;;6.00;;
59830;SDS011;45711;50.108;13.712;2023-07-24T13:54:59;12.10;;;6.90;;
59830;SDS011;45711;50.108;13.712;2023-07-24T13:57:27;12.77;;;6.97;;
59830;SDS011;45711;50.108;13.712;2023-07-24T13:59:52;14.35;;;6.32;;
59830;SDS011;45711;50.108;13.712;2023-07-24T14:02:18;13.02;;;6.20;;
59830;SDS011;45711;50.108;13.712;2023-07-24T14:04:43;12.68;;;6.88;;
59830;SDS011;45711;50.108;13.712;2023-07-24T14:07:09;33.25;;;7.03;;
59830;SDS011;45711;50.108;13.712;2023-07-24T14:09:38;10.45;;;6.07;;
59830;SDS011;45711;50.108;13.712;2023-07-24T14:12:03;11.73;;;6.63;;
59830;SDS011;45711;50.108;13.712;2023-07-24T14:14:31;9.20;;;5.70;;
59830;SDS011;45711;50.108;13.712;2023-07-24T14:16:57;10.48;;;5.95;;
59830;SDS011;45711;50.108;13.712;2023-07-24T14:19:24;12.20;;;5.60;;
59830;SDS011;45711;50.108;13.712;2023-07-24T14:21:51;9.13;;;5.63;;
59830;SDS011;45711;50.108;13.712;2023-07-24T14:24:19;10.07;;;5.82;;